createdAt,value
2018-09-29T00:02:07.631Z,1.30
2018-09-29T00:04:36.657Z,1.40
2018-09-29T00:07:05.451Z,1.60
2018-09-29T00:09:34.209Z,1.67
2018-09-29T00:12:05.947Z,2.10
2018-09-29T00:14:34.830Z,2.10
2018-09-29T00:17:04.004Z,2.10
2018-09-29T00:19:33.086Z,1.90
2018-09-29T00:22:01.839Z,2.00
2018-09-29T00:24:31.072Z,1.43
2018-09-29T00:27:00.355Z,2.30
2018-09-29T00:29:29.796Z,2.30
2018-09-29T00:31:58.723Z,2.23
2018-09-29T00:34:27.881Z,2.50
2018-09-29T00:36:56.655Z,1.90
2018-09-29T00:39:25.470Z,1.83
2018-09-29T00:41:54.542Z,2.80
2018-09-29T00:44:23.550Z,1.93
2018-09-29T00:46:52.808Z,1.87
2018-09-29T00:49:21.866Z,2.03
2018-09-29T00:51:50.935Z,2.13
2018-09-29T00:54:19.941Z,1.60
2018-09-29T00:56:48.838Z,2.20
2018-09-29T00:59:17.901Z,2.20
2018-09-29T01:01:47.603Z,1.80
2018-09-29T01:04:16.941Z,1.20
2018-09-29T01:06:45.834Z,1.30
2018-09-29T01:09:14.786Z,1.40
2018-09-29T01:11:43.758Z,1.70
2018-09-29T01:14:12.751Z,2.73
2018-09-29T01:16:41.777Z,1.63
2018-09-29T01:19:10.845Z,1.80
2018-09-29T01:21:39.819Z,1.40
2018-09-29T01:24:08.626Z,1.30
2018-09-29T01:26:37.545Z,1.73
2018-09-29T01:29:06.475Z,2.00
2018-09-29T01:31:35.432Z,1.23
2018-09-29T01:34:04.712Z,1.63
2018-09-29T01:36:33.763Z,1.60
2018-09-29T01:39:03.278Z,1.90
2018-09-29T01:41:32.338Z,1.40
2018-09-29T01:44:01.284Z,0.90
2018-09-29T01:46:30.561Z,2.23
2018-09-29T01:48:59.370Z,1.60
2018-09-29T01:51:28.261Z,1.13
2018-09-29T01:53:58.095Z,1.70
2018-09-29T01:56:26.991Z,1.50
2018-09-29T01:58:56.614Z,2.00
2018-09-29T02:01:26.199Z,1.50
2018-09-29T02:03:55.132Z,1.27
2018-09-29T02:06:24.277Z,1.30
2018-09-29T02:08:53.219Z,1.70
2018-09-29T02:11:22.189Z,1.83
2018-09-29T02:13:51.166Z,1.70
2018-09-29T02:16:20.927Z,1.50
2018-09-29T02:18:50.621Z,1.43
2018-09-29T02:21:19.603Z,2.20
2018-09-29T02:23:48.381Z,1.90
2018-09-29T02:26:17.702Z,1.47
2018-09-29T02:28:46.985Z,2.00
2018-09-29T02:31:16.247Z,2.00
2018-09-29T02:33:45.439Z,2.10
2018-09-29T02:36:14.440Z,1.50
2018-09-29T02:38:43.558Z,1.60
2018-09-29T02:41:12.591Z,1.50
2018-09-29T02:43:41.430Z,1.93
2018-09-29T02:46:10.749Z,1.53
2018-09-29T02:48:39.573Z,1.70
2018-09-29T02:51:08.475Z,1.60
2018-09-29T02:53:37.268Z,1.90
2018-09-29T02:56:06.767Z,1.83
2018-09-29T02:58:35.621Z,1.50
2018-09-29T03:01:04.681Z,2.00
2018-09-29T03:03:33.624Z,1.17
2018-09-29T03:06:02.456Z,2.17
2018-09-29T03:08:31.643Z,1.80
2018-09-29T03:11:00.832Z,1.60
2018-09-29T03:13:30.696Z,2.00
2018-09-29T03:15:59.538Z,1.63
2018-09-29T03:18:28.505Z,1.70
2018-09-29T03:20:57.495Z,1.60
2018-09-29T03:23:26.279Z,1.27
2018-09-29T03:25:55.175Z,1.60
2018-09-29T03:28:23.993Z,2.13
2018-09-29T03:30:52.881Z,1.77
2018-09-29T03:33:22.534Z,1.80
2018-09-29T03:35:51.374Z,1.63
2018-09-29T03:38:20.247Z,1.93
2018-09-29T03:40:49.008Z,1.50
2018-09-29T03:43:17.934Z,2.00
2018-09-29T03:45:46.710Z,1.47
2018-09-29T03:48:15.507Z,1.50
2018-09-29T03:50:44.595Z,1.70
2018-09-29T03:53:13.459Z,1.60
2018-09-29T03:55:42.941Z,1.57
2018-09-29T03:58:11.767Z,2.10
2018-09-29T04:00:40.896Z,2.03
2018-09-29T04:03:09.664Z,1.97
2018-09-29T04:05:39.010Z,2.37
2018-09-29T04:08:08.199Z,1.87
2018-09-29T04:10:37.682Z,2.00
2018-09-29T04:13:06.575Z,1.90
2018-09-29T04:15:36.105Z,2.10
2018-09-29T04:18:04.953Z,2.17
2018-09-29T04:20:34.032Z,2.00
2018-09-29T04:23:03.175Z,2.43
2018-09-29T04:25:32.534Z,2.17
2018-09-29T04:28:01.883Z,2.00
2018-09-29T04:30:30.998Z,1.97
2018-09-29T04:33:00.039Z,1.80
2018-09-29T04:35:29.042Z,2.40
2018-09-29T04:37:57.957Z,3.73
2018-09-29T04:40:26.713Z,2.17
2018-09-29T04:42:55.496Z,2.17
2018-09-29T04:45:24.223Z,1.80
2018-09-29T04:47:53.393Z,1.60
2018-09-29T04:50:22.625Z,1.93
2018-09-29T04:52:51.799Z,2.03
2018-09-29T04:55:21.077Z,2.30
2018-09-29T04:57:49.829Z,1.90
2018-09-29T05:00:18.614Z,2.20
2018-09-29T05:02:47.470Z,1.70
2018-09-29T05:05:16.566Z,2.33
2018-09-29T05:07:45.510Z,2.47
2018-09-29T05:10:14.597Z,1.77
2018-09-29T05:12:43.390Z,2.40
2018-09-29T05:15:12.496Z,2.30
2018-09-29T05:17:41.619Z,1.90
2018-09-29T05:20:10.370Z,2.03
2018-09-29T05:22:39.591Z,1.73
2018-09-29T05:25:08.366Z,2.00
2018-09-29T05:27:37.485Z,3.00
2018-09-29T05:30:08.431Z,1.53
2018-09-29T05:32:37.272Z,3.03
2018-09-29T05:35:06.446Z,2.43
2018-09-29T05:37:35.289Z,1.87
2018-09-29T05:40:04.269Z,2.53
2018-09-29T05:42:33.031Z,2.70
2018-09-29T05:45:02.014Z,2.57
2018-09-29T05:47:31.116Z,1.70
2018-09-29T05:50:00.462Z,2.50
2018-09-29T05:52:29.523Z,2.10
2018-09-29T05:54:58.890Z,2.30
2018-09-29T05:57:28.289Z,2.40
2018-09-29T05:59:57.797Z,2.47
2018-09-29T06:02:26.982Z,2.17
2018-09-29T06:04:55.777Z,3.07
2018-09-29T06:07:24.647Z,3.43
2018-09-29T06:09:54.090Z,2.43
2018-09-29T06:12:22.814Z,3.20
2018-09-29T06:14:52.761Z,2.47
2018-09-29T06:17:22.654Z,3.13
2018-09-29T06:19:51.995Z,2.27
2018-09-29T06:22:20.743Z,2.40
2018-09-29T06:24:49.607Z,3.00
2018-09-29T06:27:18.459Z,2.87
2018-09-29T06:29:47.319Z,2.77
2018-09-29T06:32:16.474Z,2.63
2018-09-29T06:34:45.285Z,3.37
2018-09-29T06:37:14.336Z,2.57
2018-09-29T06:39:43.465Z,2.53
2018-09-29T06:42:12.263Z,2.40
2018-09-29T06:44:41.083Z,3.00
2018-09-29T06:47:10.384Z,2.70
2018-09-29T06:49:39.556Z,3.10
2018-09-29T06:52:08.342Z,3.00
2018-09-29T06:54:37.718Z,3.10
2018-09-29T06:57:06.450Z,2.80
2018-09-29T06:59:35.247Z,3.50
2018-09-29T07:02:04.083Z,2.70
2018-09-29T07:04:33.119Z,3.53
2018-09-29T07:07:01.927Z,4.00
2018-09-29T07:09:30.768Z,3.00
2018-09-29T07:11:59.920Z,3.27
2018-09-29T07:14:28.744Z,3.53
2018-09-29T07:16:57.810Z,4.07
2018-09-29T07:19:26.977Z,3.90
2018-09-29T07:21:55.850Z,3.40
2018-09-29T07:24:24.667Z,3.53
2018-09-29T07:26:53.834Z,3.40
2018-09-29T07:29:22.726Z,3.40
2018-09-29T07:31:51.637Z,3.20
2018-09-29T07:34:20.901Z,3.27
2018-09-29T07:36:50.396Z,3.03
2018-09-29T07:39:19.632Z,2.60
2018-09-29T07:41:48.437Z,2.70
2018-09-29T07:44:17.628Z,3.87
2018-09-29T07:46:46.663Z,2.73
2018-09-29T07:49:15.623Z,2.90
2018-09-29T07:51:46.509Z,2.97
2018-09-29T07:54:15.651Z,2.70
2018-09-29T07:56:44.400Z,2.70
2018-09-29T07:59:13.165Z,2.13
2018-09-29T08:01:42.164Z,1.97
2018-09-29T08:04:10.976Z,2.57
2018-09-29T08:06:39.818Z,2.70
2018-09-29T08:09:08.718Z,2.90
2018-09-29T08:11:37.574Z,2.97
2018-09-29T08:14:06.331Z,3.37
2018-09-29T08:16:35.091Z,5.33
2018-09-29T08:19:03.882Z,6.80
2018-09-29T08:21:32.635Z,6.23
2018-09-29T08:24:01.698Z,5.30
2018-09-29T08:26:30.507Z,4.50
2018-09-29T08:28:59.991Z,3.87
2018-09-29T08:31:28.767Z,4.37
2018-09-29T08:33:57.664Z,1.77
2018-09-29T08:36:26.409Z,1.90
2018-09-29T08:38:55.178Z,1.63
2018-09-29T08:41:23.984Z,1.47
2018-09-29T08:43:52.758Z,2.07
2018-09-29T08:46:21.844Z,1.30
2018-09-29T08:48:50.625Z,1.83
2018-09-29T08:51:19.629Z,1.40
2018-09-29T08:53:48.463Z,1.93
2018-09-29T08:56:17.285Z,1.70
2018-09-29T08:58:46.045Z,1.00
2018-09-29T09:01:15.149Z,1.87
2018-09-29T09:03:44.444Z,1.70
2018-09-29T09:06:13.341Z,1.10
2018-09-29T09:08:42.111Z,1.07
2018-09-29T09:11:11.390Z,1.30
2018-09-29T09:13:40.447Z,1.00
2018-09-29T09:16:09.878Z,1.17
2018-09-29T09:18:39.092Z,1.03
2018-09-29T09:21:07.879Z,1.13
2018-09-29T09:23:41.781Z,1.50
2018-09-29T09:26:10.530Z,1.37
2018-09-29T09:28:39.331Z,1.20
2018-09-29T09:31:08.501Z,1.03
2018-09-29T09:33:38.126Z,1.30
2018-09-29T09:36:08.341Z,1.40
2018-09-29T09:38:37.465Z,1.20
2018-09-29T09:41:06.233Z,1.00
2018-09-29T09:43:35.354Z,1.40
2018-09-29T09:46:04.091Z,0.60
2018-09-29T09:48:32.851Z,2.23
2018-09-29T09:51:01.938Z,2.60
2018-09-29T09:53:31.063Z,0.83
2018-09-29T09:56:00.550Z,0.80
2018-09-29T09:58:29.329Z,1.10
2018-09-29T10:01:03.301Z,1.17
2018-09-29T10:03:34.954Z,0.93
2018-09-29T10:06:03.745Z,0.73
2018-09-29T10:08:32.593Z,1.10
2018-09-29T10:11:01.805Z,0.83
2018-09-29T10:13:30.671Z,0.70
2018-09-29T10:15:59.798Z,1.13
2018-09-29T10:18:28.620Z,0.80
2018-09-29T10:20:57.453Z,1.30
2018-09-29T10:23:26.219Z,1.00
2018-09-29T10:25:54.986Z,1.90
2018-09-29T10:28:23.847Z,1.27
2018-09-29T10:30:52.691Z,0.90
2018-09-29T10:33:21.543Z,1.23
2018-09-29T10:35:50.717Z,0.90
2018-09-29T10:38:19.846Z,1.37
2018-09-29T10:40:49.476Z,1.00
2018-09-29T10:43:18.489Z,0.80
2018-09-29T10:45:47.270Z,0.73
2018-09-29T10:48:16.497Z,1.10
2018-09-29T10:50:45.524Z,0.70
2018-09-29T10:53:14.616Z,0.67
2018-09-29T10:55:43.714Z,1.07
2018-09-29T10:58:12.994Z,0.80
2018-09-29T11:00:41.787Z,0.93
2018-09-29T11:03:10.598Z,1.10
2018-09-29T11:05:39.422Z,0.97
2018-09-29T11:08:08.244Z,1.10
2018-09-29T11:10:37.218Z,0.87
2018-09-29T11:13:06.371Z,0.60
2018-09-29T11:15:35.458Z,1.00
2018-09-29T11:18:04.205Z,0.73
2018-09-29T11:20:33.417Z,0.60
2018-09-29T11:23:02.731Z,1.10
2018-09-29T11:25:31.806Z,1.33
2018-09-29T11:28:00.590Z,0.90
2018-09-29T11:30:29.340Z,1.10
2018-09-29T11:32:58.372Z,1.30
2018-09-29T11:35:27.191Z,0.70
2018-09-29T11:37:56.273Z,0.77
2018-09-29T11:40:25.272Z,0.83
2018-09-29T11:42:54.068Z,1.10
2018-09-29T11:45:22.842Z,0.60
2018-09-29T11:47:51.617Z,0.97
2018-09-29T11:50:20.712Z,0.70
2018-09-29T11:52:53.806Z,0.60
2018-09-29T11:55:22.998Z,0.63
2018-09-29T11:57:51.750Z,0.73
2018-09-29T12:00:20.537Z,1.10
2018-09-29T12:02:49.672Z,0.60
2018-09-29T12:05:18.805Z,0.70
2018-09-29T12:07:47.571Z,0.50
2018-09-29T12:10:16.834Z,0.80
2018-09-29T12:12:46.135Z,0.60
2018-09-29T12:15:15.751Z,0.60
2018-09-29T12:17:44.507Z,0.60
2018-09-29T12:20:13.247Z,0.70
2018-09-29T12:22:42.041Z,0.60
2018-09-29T12:25:10.819Z,0.70
2018-09-29T12:27:39.652Z,1.40
2018-09-29T12:30:08.830Z,1.50
2018-09-29T12:32:37.827Z,0.70
2018-09-29T12:35:07.009Z,1.00
2018-09-29T12:37:36.199Z,1.00
2018-09-29T12:40:05.681Z,0.90
2018-09-29T12:42:34.884Z,1.20
2018-09-29T12:45:03.893Z,0.63
2018-09-29T12:47:32.808Z,0.90
2018-09-29T12:50:01.836Z,0.80
2018-09-29T12:52:30.964Z,0.70
2018-09-29T12:54:59.810Z,1.23
2018-09-29T12:57:28.582Z,1.10
2018-09-29T12:59:57.400Z,0.70
2018-09-29T13:02:26.217Z,0.50
2018-09-29T13:04:54.938Z,1.10
2018-09-29T13:07:23.988Z,1.00
2018-09-29T13:09:53.451Z,1.10
2018-09-29T13:12:22.252Z,0.87
2018-09-29T13:14:51.009Z,0.87
2018-09-29T13:17:20.296Z,0.80
2018-09-29T13:19:49.043Z,1.10
2018-09-29T13:22:18.198Z,0.93
2018-09-29T13:24:47.827Z,0.87
2018-09-29T13:27:16.578Z,1.30
2018-09-29T13:29:45.713Z,1.20
2018-09-29T13:32:14.551Z,1.00
2018-09-29T13:34:43.441Z,0.90
2018-09-29T13:37:12.941Z,0.90
2018-09-29T13:39:41.997Z,0.90
2018-09-29T13:42:10.802Z,1.17
2018-09-29T13:44:39.570Z,0.70
2018-09-29T13:47:08.642Z,0.70
2018-09-29T13:49:37.921Z,0.90
2018-09-29T13:52:07.116Z,1.60
2018-09-29T13:54:36.247Z,1.03
2018-09-29T13:57:05.151Z,0.67
2018-09-29T13:59:33.921Z,1.20
2018-09-29T14:02:02.780Z,0.83
2018-09-29T14:04:32.654Z,1.03
2018-09-29T14:07:01.744Z,1.20
2018-09-29T14:09:30.544Z,1.00
2018-09-29T14:11:59.308Z,0.93
2018-09-29T14:14:28.440Z,1.00
2018-09-29T14:16:57.219Z,0.67
2018-09-29T14:19:26.781Z,0.90
2018-09-29T14:21:56.210Z,1.20
2018-09-29T14:24:25.181Z,1.03
2018-09-29T14:26:53.926Z,1.10
2018-09-29T14:29:23.009Z,0.90
2018-09-29T14:31:52.680Z,0.70
2018-09-29T14:34:21.925Z,1.10
2018-09-29T14:36:51.082Z,1.73
2018-09-29T14:39:20.457Z,0.70
2018-09-29T14:41:49.353Z,0.80
2018-09-29T14:44:18.174Z,1.17
2018-09-29T14:46:46.950Z,1.50
2018-09-29T14:49:16.076Z,1.30
2018-09-29T14:51:45.055Z,1.13
2018-09-29T14:54:13.837Z,1.10
2018-09-29T14:56:42.580Z,0.90
2018-09-29T14:59:11.697Z,0.90
2018-09-29T15:01:40.467Z,0.90
2018-09-29T15:04:09.996Z,0.60
2018-09-29T15:06:38.985Z,1.27
2018-09-29T15:09:10.757Z,0.90
2018-09-29T15:11:39.600Z,0.80
2018-09-29T15:14:08.916Z,1.80
2018-09-29T15:16:37.922Z,1.57
2018-09-29T15:19:07.328Z,0.90
2018-09-29T15:21:36.421Z,0.90
2018-09-29T15:24:05.409Z,1.20
2018-09-29T15:26:34.368Z,1.23
2018-09-29T15:29:03.245Z,0.90
2018-09-29T15:31:32.639Z,0.80
2018-09-29T15:34:02.059Z,1.10
2018-09-29T15:36:31.047Z,0.83
2018-09-29T15:38:59.902Z,0.90
2018-09-29T15:41:28.691Z,0.90
2018-09-29T15:43:57.518Z,1.47
2018-09-29T15:46:26.642Z,1.50
2018-09-29T15:48:55.368Z,1.50
2018-09-29T15:51:24.243Z,1.10
2018-09-29T15:53:53.087Z,0.87
2018-09-29T15:56:22.223Z,0.80
2018-09-29T15:58:51.170Z,1.60
2018-09-29T16:01:20.090Z,1.20
2018-09-29T16:03:49.031Z,1.73
2018-09-29T16:06:18.436Z,1.17
2018-09-29T16:08:47.976Z,0.93
2018-09-29T16:11:16.760Z,0.97
2018-09-29T16:13:46.134Z,1.10
2018-09-29T16:16:14.887Z,1.53
2018-09-29T16:18:43.675Z,0.87
2018-09-29T16:21:12.562Z,1.17
2018-09-29T16:23:41.802Z,1.90
2018-09-29T16:26:10.547Z,1.20
2018-09-29T16:28:39.325Z,1.77
2018-09-29T16:31:08.437Z,2.20
2018-09-29T16:33:37.193Z,1.30
2018-09-29T16:36:06.279Z,2.23
2018-09-29T16:38:35.123Z,1.30
2018-09-29T16:41:03.900Z,1.73
2018-09-29T16:43:33.169Z,1.23
2018-09-29T16:46:01.941Z,1.17
2018-09-29T16:48:30.761Z,1.50
2018-09-29T16:50:59.851Z,1.00
2018-09-29T16:53:28.671Z,0.73
2018-09-29T16:55:57.843Z,1.03
2018-09-29T16:58:26.570Z,1.13
2018-09-29T17:00:56.241Z,0.80
2018-09-29T17:03:25.060Z,0.80
2018-09-29T17:05:53.983Z,1.10
2018-09-29T17:08:23.143Z,0.80
2018-09-29T17:10:52.246Z,0.90
2018-09-29T17:13:20.973Z,0.73
2018-09-29T17:15:52.209Z,1.10
2018-09-29T17:18:22.163Z,0.97
2018-09-29T17:20:51.937Z,0.97
2018-09-29T17:23:21.800Z,1.20
2018-09-29T17:25:51.962Z,0.97
2018-09-29T17:28:22.437Z,0.73
2018-09-29T17:30:51.801Z,1.00
2018-09-29T17:33:20.601Z,1.30
2018-09-29T17:35:49.632Z,0.80
2018-09-29T17:38:18.732Z,0.70
2018-09-29T17:40:47.767Z,0.80
2018-09-29T17:43:16.916Z,1.00
2018-09-29T17:45:46.311Z,1.10
2018-09-29T17:48:15.557Z,1.70
2018-09-29T17:50:44.793Z,1.57
2018-09-29T17:53:13.887Z,1.13
2018-09-29T17:55:43.027Z,1.80
2018-09-29T17:58:12.273Z,1.00
2018-09-29T18:00:41.019Z,4.30
2018-09-29T18:03:10.100Z,2.60
2018-09-29T18:05:39.814Z,1.90
2018-09-29T18:08:09.034Z,2.23
2018-09-29T18:10:38.224Z,1.90
2018-09-29T18:13:07.224Z,1.73
2018-09-29T18:15:35.959Z,2.00
2018-09-29T18:18:04.750Z,1.30
2018-09-29T18:20:33.696Z,1.50
2018-09-29T18:23:02.723Z,1.63
2018-09-29T18:25:31.640Z,2.80
2018-09-29T18:28:00.400Z,1.93
2018-09-29T18:30:29.527Z,2.80
2018-09-29T18:32:58.360Z,1.80
2018-09-29T18:35:27.707Z,1.97
2018-09-29T18:37:56.736Z,1.77
2018-09-29T18:40:25.473Z,1.53
2018-09-29T18:42:54.262Z,3.43
2018-09-29T18:45:23.071Z,3.97
2018-09-29T18:47:52.086Z,5.03
2018-09-29T18:50:20.947Z,3.63
2018-09-29T18:52:50.300Z,4.27
2018-09-29T18:55:19.349Z,4.50
2018-09-29T18:57:48.155Z,3.70
2018-09-29T19:00:17.221Z,3.20
2018-09-29T19:02:46.230Z,3.00
2018-09-29T19:05:14.976Z,3.07
2018-09-29T19:07:43.799Z,2.70
2018-09-29T19:10:12.887Z,5.00
2018-09-29T19:12:42.240Z,3.03
2018-09-29T19:15:11.041Z,3.67
2018-09-29T19:17:40.477Z,3.70
2018-09-29T19:20:10.328Z,3.40
2018-09-29T19:22:39.057Z,2.90
2018-09-29T19:25:08.119Z,3.00
2018-09-29T19:27:36.920Z,2.93
2018-09-29T19:30:05.960Z,2.30
2018-09-29T19:32:34.987Z,2.77
2018-09-29T19:35:03.790Z,2.70
2018-09-29T19:37:32.830Z,1.90
2018-09-29T19:40:01.695Z,1.80
2018-09-29T19:42:30.451Z,1.30
2018-09-29T19:44:59.265Z,1.77
2018-09-29T19:47:28.049Z,2.33
2018-09-29T19:49:57.610Z,2.43
2018-09-29T19:52:26.569Z,2.03
2018-09-29T19:54:55.551Z,2.30
2018-09-29T19:57:24.332Z,3.10
2018-09-29T19:59:53.426Z,2.80
2018-09-29T20:02:22.535Z,2.70
2018-09-29T20:04:51.578Z,3.13
2018-09-29T20:07:20.723Z,3.20
2018-09-29T20:09:50.075Z,3.30
2018-09-29T20:12:19.044Z,3.63
2018-09-29T20:14:48.382Z,6.87
2018-09-29T20:17:17.724Z,5.80
2018-09-29T20:19:46.492Z,6.10
2018-09-29T20:22:15.586Z,7.50
2018-09-29T20:24:45.083Z,7.90
2018-09-29T20:27:13.813Z,7.63
2018-09-29T20:29:42.588Z,8.43
2018-09-29T20:32:11.311Z,9.27
2018-09-29T20:34:40.918Z,8.97
2018-09-29T20:37:09.741Z,9.87
2018-09-29T20:39:38.836Z,10.10
2018-09-29T20:42:07.873Z,11.17
2018-09-29T20:44:36.754Z,11.20
2018-09-29T20:47:05.912Z,9.37
2018-09-29T20:49:34.749Z,11.33
2018-09-29T20:52:03.824Z,8.87
2018-09-29T20:54:32.604Z,7.90
2018-09-29T20:57:01.530Z,6.90
2018-09-29T20:59:30.826Z,4.87
2018-09-29T21:01:59.556Z,3.93
2018-09-29T21:04:28.356Z,4.13
2018-09-29T21:06:57.109Z,3.73
2018-09-29T21:09:25.955Z,4.00
2018-09-29T21:11:55.038Z,4.47
2018-09-29T21:14:23.791Z,3.60
2018-09-29T21:16:52.940Z,3.30
2018-09-29T21:19:21.790Z,3.20
2018-09-29T21:21:50.598Z,2.60
2018-09-29T21:24:19.362Z,2.80
2018-09-29T21:26:48.130Z,2.20
2018-09-29T21:29:17.178Z,2.27
2018-09-29T21:31:46.378Z,1.77
2018-09-29T21:34:15.724Z,2.10
2018-09-29T21:36:44.486Z,1.80
2018-09-29T21:39:14.298Z,1.97
2018-09-29T21:41:43.721Z,1.47
2018-09-29T21:44:12.882Z,2.17
2018-09-29T21:46:41.668Z,3.10
2018-09-29T21:49:10.802Z,1.60
2018-09-29T21:51:39.575Z,1.57
2018-09-29T21:54:08.693Z,1.83
2018-09-29T21:56:37.436Z,1.90
2018-09-29T21:59:06.172Z,1.60
2018-09-29T22:01:36.209Z,2.53
2018-09-29T22:04:04.977Z,1.93
2018-09-29T22:06:33.818Z,2.10
2018-09-29T22:09:03.209Z,1.70
2018-09-29T22:11:32.007Z,1.60
2018-09-29T22:14:01.233Z,3.40
2018-09-29T22:16:30.588Z,1.63
2018-09-29T22:18:59.628Z,1.70
2018-09-29T22:21:28.709Z,1.83
2018-09-29T22:23:57.708Z,2.03
2018-09-29T22:26:26.430Z,2.17
2018-09-29T22:28:55.242Z,2.13
2018-09-29T22:31:24.680Z,2.00
2018-09-29T22:33:53.657Z,3.17
2018-09-29T22:36:22.542Z,1.80
2018-09-29T22:38:52.217Z,2.00
2018-09-29T22:41:21.074Z,2.13
2018-09-29T22:43:50.443Z,2.13
2018-09-29T22:46:20.476Z,2.10
2018-09-29T22:48:49.334Z,2.90
2018-09-29T22:51:18.160Z,2.13
2018-09-29T22:53:47.102Z,2.37
2018-09-29T22:56:15.959Z,1.73
2018-09-29T22:58:45.596Z,2.53
2018-09-29T23:01:14.525Z,2.30
2018-09-29T23:03:43.374Z,2.67
2018-09-29T23:06:12.398Z,2.43
2018-09-29T23:08:42.423Z,2.77
2018-09-29T23:11:11.244Z,2.30
2018-09-29T23:13:40.090Z,2.50
2018-09-29T23:16:09.339Z,2.27
2018-09-29T23:18:38.343Z,4.40
2018-09-29T23:21:07.762Z,3.73
2018-09-29T23:23:37.023Z,2.80
2018-09-29T23:26:06.119Z,2.80
2018-09-29T23:28:34.916Z,3.23
2018-09-29T23:31:04.031Z,2.60
2018-09-29T23:33:32.997Z,2.87
2018-09-29T23:36:02.458Z,2.97
2018-09-29T23:38:31.189Z,3.20
2018-09-29T23:41:00.635Z,2.63
2018-09-29T23:43:29.859Z,5.90
2018-09-29T23:45:58.674Z,3.13
2018-09-29T23:48:27.517Z,4.80
2018-09-29T23:50:56.378Z,3.70
2018-09-29T23:53:25.830Z,3.17
2018-09-29T23:55:55.099Z,3.30
2018-09-29T23:58:23.862Z,3.27
